Aviation Digital Data Service (ADDS)

Output produced by METARs form (0636 UTC 27 March 2017)
found at http://www.aviationweather.gov/adds/metars/
 
RJSK 270600Z 22004KT 180V250 9999 -SHRA FEW001 SCT020 BKN025 05/03 Q1011
TAF RJSK 270516Z 2706/2812 32008KT 9999 -SHRA FEW010 SCT020 BKN030 
     TEMPO 2706/2709 3000 SHRA BR 
     BECMG 2718/2721 14003KT 
     BECMG 2800/2803 27013KT 
     TEMPO 2806/2809 3000 SHRA BR FEW005 BKN008 BKN015
       
RJKA 270600Z 30014G24KT 270V340 9999 FEW045 SCT050 18/04 Q1021
RJSA 270600Z 04007KT 360V060 9999 VCSH FEW005 SCT020 BKN045 03/M00 Q1012
TAF RJSA 270505Z 2706/2812 04008KT 9999 FEW010 BKN020 BKN030 
     TEMPO 2706/2709 3000 -SHSNRA 
     BECMG 2713/2715 24008KT 
     TEMPO 2806/2809 1500 -SHSN FEW003 BKN008 BKN015
       
RJEC 270600Z 03004KT 330V090 9999 FEW030 SCT/// 05/M09 Q1011
TAF RJEC 270509Z 2706/2812 31009KT 9999 FEW020 BKN050 
     BECMG 2712/2714 18005KT 
     TEMPO 2800/2803 3000 -SHSNRA 
     BECMG 2803/2806 30005KT 
     TEMPO 2803/2806 3000 -SHSNRA FEW008 BKN025 FEW025CB 
     BECMG 2809/2812 19007KT
       
RJFE 270606Z 32012KT 290V350 9999 -SHRA FEW030 SCT040 BKN050 10/04 Q1020 RMK 1CU030 4CU040 5SC050 A3014
RJFF 270600Z 29012KT 260V330 9999 -SHRA FEW030 SCT040 BKN050 12/01 Q1018 RMK 1CU030 3CU040 5SC050 A3007
TAF RJFF 270505Z 2706/2812 29010KT 9000 -SHRA FEW030 BKN040 
     TEMPO 2706/2708 29015G25KT 
     TEMPO 2710/2713 4000 -TSRA BR FEW010 SCT020 FEW025CB BKN030 
     BECMG 2809/2812 17004KT
       
RJSF 270600Z 35012KT 1500 R01/P1800N -SN BCFG BR FEW001 BKN002 BKN003 00/00 Q1008
TAF RJSF 270505Z 2706/2812 35010KT 4000 -SN BR FEW003 BKN006 BKN010 
     TEMPO 2706/2712 1500 -SN BR FEW001 BKN003 BKN005 
     TEMPO 2712/2721 0700 -SHSN FG SCT001 BKN002 BKN005 
     BECMG 2721/2800 9999 NSW FEW020 BKN050
       
ROTM 270558Z 33013G21KT 9999 FEW050 19/07 A3023 RMK SLP226 STNPR29930 T01890067 10194 20189 56014
TAF ROTM 2703/2803 34013G18KT 9999 FEW050 QNH3021INS 
     BECMG 2800/2802 05010KT 9999 FEW040 QNH3024INS T20/2706Z T16/2721Z
       
RJNG 270622Z 29017G27KT 9999 FEW030 13/M03 Q1010 RMK 1CU030 A2983
RJSH 270123Z 10013KT 9999 -SHRA FEW008 SCT012 BKN020 05/02 Q1014 RMK 1ST008 4ST012 7CU020 A2995
RJCH 270600Z 14014KT 9999 FEW025 SCT040 BKN/// 06/M02 Q1013
TAF RJCH 270510Z 2706/2812 11008KT 9999 FEW040 
     BECMG 2711/2713 26005KT 
     TEMPO 2800/2806 FEW010 BKN025 FEW025CB
       
RJSI 270600Z 35009KT 9999 -SHRA FEW015 SCT025 BKN035 05/03 Q1010
RJOA 270631Z 35007KT 9999 -SHRA FEW003 SCT015 BKN030 06/04 Q1015 RMK 1ST003 3CU015 6CU030 A2997
TAF AMD RJOA 270525Z 2706/2812 29006KT 9999 FEW015 SCT045 
     TEMPO 2706/2708 4000 -TSRAGS BR FEW005 SCT020 FEW025CB BKN030
       
RJOF 270434Z 27017KT 9999 -SHRA FEW012 BKN015 BKN025 FEW030CB 08/05 Q1017 RETS RMK 1CU012 5CU015 7CU025 1CB030 A3005 CB NE
RJAH 270614Z 36011KT 9999 -SHRA FEW008 BKN020 OVC035 05/03 Q1008 RMK 1ST008 6CU020 8CU035 A2977
TAF RJAH 270515Z 2706/2812 36010KT 8000 FEW015 BKN020 
     TEMPO 2718/2800 4000 BR 
     BECMG 2803/2806 10008KT
       
ROIG 270600Z 04015KT 9999 FEW035 22/07 Q1023
TAF ROIG 270508Z 2706/2812 05014KT 9999 FEW035 
     BECMG 2806/2809 11010KT
       
RJOI 270555Z 32010KT 9999 SCT025 BKN040 BKN080 12/04 A3001 RMK SHRAE45 SLP163 P0000 60007 T01170039 10122 20083 56007
TAF AMD RJOI 2704/2803 VRB06KT 9999 SCT020 BKN035 551209 QNH2995INS 
     TEMPO 2704/2708 27018G22KT 9000 -SHRA BR BKN020 
     FM270800 29009KT 9999 SCT020 BKN030 551209 QNH3002INS 
     FM271300 30007KT 9999 SCT010 BKN050 551009 QNH3009INS 
     FM272100 30008KT 9999 FEW030 500000 QNH3017INS T05/2719Z T12/2806Z AMD 0440
       
RJOW 270600Z 18005KT 140V210 9999 FEW010 SCT030 BKN070 08/05 Q1017
RJAW 270600Z 33018G29KT 9999 FEW015 BKN020 22/14 Q1015 RMK 1CU015 6CU020 A3000
RJOC 270600Z VRB03KT 9999 -SHRA FEW015 BKN025 BKN030 09/04 Q1016
TAF RJOC 270505Z 2706/2812 25010KT 9999 -SHRA FEW015 SCT025 BKN040 
     BECMG 2712/2714 17004KT 
     TEMPO 2712/2718 4000 SHRA BR FEW002 BKN008 BKN015 
     BECMG 2800/2803 27010KT 
     BECMG 2809/2812 17006KT
       
RODN 270558Z AUTO 33015KT 9SM FEW050 20/07 A3022 RMK AO2 SLP241 T02020067 10204 20183 57019
TAF RODN 270100Z 2701/2807 34012G18KT 9999 FEW055 QNH3023INS 
     BECMG 2718/2719 03009KT 9999 FEW050 QNH3028INS TX20/2704Z TN15/2720Z
       
RJFK 270628Z 33017G27KT 9999 FEW020 SCT030 BKN045 10/03 Q1018 RMK 1CU020 3CU030 6CU045 A3008
TAF RJFK 270514Z 2706/2812 31014KT 9999 -SHRA FEW010 SCT020 BKN030 
     TEMPO 2706/2709 31015G25KT 4000 TSRA BR FEW010 SCT020 FEW025CB BKN030 
     BECMG 2714/2716 25006KT
       
RJFY 270249Z 28015G26KT 8000 -SHRA FEW015 BKN030 11/07 Q1019 RMK 1CU015 7CU030 A3012
RJBB 270600Z 26005KT 9999 FEW030 SCT040 14/01 Q1013 NOSIG
TAF RJBB 270505Z 2706/2812 30010KT 9999 FEW025 SCT050 
     BECMG 2707/2709 01010KT 
     BECMG 2800/2803 28006KT
       
RJTR 270209Z 34012G20KT 5SM -RA BR OVC012 05/04 A2976
RJTK 270606Z 36017KT 9999 FEW015 BKN020 BKN100 08/04 Q1008 RMK 1CU015 5CU020 7AC100 A2977
RJFR 270600Z 29016KT 9999 FEW030 BKN040 12/01 Q1017
TAF RJFR 270516Z 2706/2812 28018KT 9999 FEW015 SCT030 BKN040 
     TEMPO 2706/2709 28018G28KT 
     TEMPO 2710/2715 4000 -TSRA BR FEW010 SCT020 BKN030 FEW030CB 
     BECMG 2711/2713 30008KT 
     BECMG 2809/2812 25006KT
       
RJOK 270600Z VRB03KT 9999 -SHRA FEW020 SCT030 BKN040 12/03 Q1013
TAF RJOK 270505Z 2706/2812 35010KT 9999 SCT030 BKN045 
     BECMG 2800/2803 20008KT 
     BECMG 2806/2809 36008KT
       
RJNK 270600Z 35013KT 9999 FEW020 SCT030 09/M01 Q1014
TAF RJNK 270514Z 2706/2812 36012KT 9999 FEW020 BKN030 
     BECMG 2715/2717 14004KT 
     BECMG 2800/2803 23012KT 
     TEMPO 2809/2812 4000 -TSRA BR FEW008 BKN015 FEW020CB
       
RJFT 270600Z 27011KT 9999 -SHRA FEW015 SCT025 BKN060 09/03 Q1018
TAF RJFT 270506Z 2706/2812 26009KT 9999 FEW020 BKN040 
     TEMPO 2715/2718 4000 BR 
     BECMG 2809/2812 06008KT
       
RJCK 270600Z 15006KT 9999 PRFG FEW001 SCT040 BKN/// 00/M00 Q1014
TAF RJCK 270514Z 2706/2812 19005KT 8000 FEW003 BKN015 
     TEMPO 2706/2709 2000 BR FEW001 BKN005 
     TEMPO 2709/2715 0700 FZFG VV001 
     BECMG 2711/2713 34006KT 
     TEMPO 2715/2800 1500 BR FEW001 BKN003 
     BECMG 2721/2800 19011KT
       
RJAF 270600Z 02013G23KT 350V060 9999 FEW025 SCT040 BKN150 07/M03 Q1008
RJOM 270624Z 30015KT 9999 -SHRA FEW015 SCT030 BKN060 09/06 Q1016 RMK 1CU015 3CU030 5SC060 A3002
TAF RJOM 270510Z 2706/2812 23006KT 9999 FEW020 BKN035 
     BECMG 2707/2709 31011KT 
     BECMG 2800/2803 23008KT
       
RJCM 270600Z 10005KT 9999 FEW030 SCT060 BKN080 05/M06 Q1013
TAF RJCM 270512Z 2706/2812 19007KT 9999 FEW020 SCT040 
     BECMG 2800/2803 34005KT 
     BECMG 2806/2809 15003KT
       
RJOH 270600Z 04008KT 9999 FEW015 BKN030 BKN050 10/M02 Q1016
TAF RJOH 270505Z 2706/2812 04009KT 9999 FEW015 SCT025 BKN040 
     BECMG 2712/2714 18004KT 
     TEMPO 2712/2718 4000 SHRA BR FEW002 BKN008 BKN015 
     BECMG 2800/2803 25010KT 
     BECMG 2809/2812 18006KT
       
ROMY 270600Z 01013KT 330V050 CAVOK 21/06 Q1023
RJFM 270600Z 28022KT 260V320 9999 FEW030 SCT045 14/00 Q1016
TAF RJFM 270515Z 2706/2812 29020G30KT 9999 FEW030 
     BECMG 2800/2803 29010KT 
     BECMG 2803/2806 15012KT 
     BECMG 2809/2812 26012KT
       
RJEB 270600Z 09004KT 9999 FEW050 BKN080 04/M04 Q1013
RJFU 270600Z 31019KT 9999 VCSH FEW030 BKN040 11/02 Q1019
TAF RJFU 270515Z 2706/2812 30015KT 9999 FEW030 BKN045 
     TEMPO 2706/2709 30020G30KT 
     BECMG 2809/2812 03007KT
       
ROAH 270600Z 34018KT CAVOK 20/07 Q1023 RMK A3022
TAF ROAH 270505Z 2706/2812 35015KT 9999 FEW040 
     BECMG 2718/2721 05008KT 
     BECMG 2806/2809 12006KT
       
RJCN 270600Z 08003KT 030V110 9999 FEW020 BKN/// 03/M03 Q1014
RJBD 270600Z 31016KT 9999 FEW035 13/02 Q1012
RJCC 270600Z 19013KT 9999 FEW030 BKN/// 07/M07 Q1013
TAF RJCC 270506Z 2706/2812 17007KT 9999 FEW030 
     TEMPO 2803/2806 4000 SHRA BR FEW005 BKN008 
     BECMG 2803/2806 35006KT 
     BECMG 2809/2812 19005KT
       
RJAA 270613Z 35022G32KT 9999 -SHRA FEW010 SCT015 BKN020 05/04 Q1008 WS R34R RMK 1CU010 4CU015 6CU020 A2977
TAF RJAA 270510Z 2706/2812 34015KT 8000 FEW010 BKN020 
     TEMPO 2706/2709 34018G29KT 
     BECMG 2713/2715 34005KT 
     TEMPO 2718/2721 4000 BR 
     BECMG 2806/2809 14007KT
       
RJSN 270600Z 29010KT 9999 -SHRA FEW008 SCT015 BKN020 07/04 Q1011
TAF RJSN 270513Z 2706/2812 24006KT 9999 FEW008 BKN015 
     BECMG 2708/2710 34010KT 
     TEMPO 2712/2716 4000 -SHRAGS BR FEW005 BKN008 FEW020CB 
     BECMG 2800/2803 28008KT
       
RJCB 270600Z 17007KT 140V210 9999 FEW030 BKN/// 04/M03 Q1013
TAF RJCB 270507Z 2706/2812 15005KT 9999 FEW030 SCT070 
     TEMPO 2709/2714 3000 BR FEW003 BKN006 
     BECMG 2714/2716 36003KT 
     TEMPO 2714/2721 1500 BR FEW001 BKN003 
     BECMG 2721/2800 16005KT 
     BECMG 2806/2809 34004KT
       
RJSR 270500Z 04008KT 350V090 9999 FEW010 SCT030 BKN/// 07/00 Q1011
RJFO 270600Z 31015G26KT 270V340 9999 FEW030 SCT040 BKN050 12/01 Q1016
TAF RJFO 270516Z 2706/2812 31016KT 9999 FEW020 SCT030 BKN040 
     TEMPO 2706/2709 31018G28KT 
     BECMG 2710/2712 28006KT 
     BECMG 2718/2721 25005KT 
     BECMG 2800/2803 32011KT
       
RJOB 270600Z 22007KT 160V250 9999 VCSH FEW020 SCT030 BKN050 10/01 Q1013
TAF AMD RJOB 270625Z 2706/2812 24011KT 9999 FEW020 BKN040 
     BECMG 2707/2709 36005KT 
     BECMG 2800/2803 25007KT 
     BECMG 2809/2812 36004KT
       
RJOO 270600Z 31011KT 9999 FEW030 SCT060 14/M04 Q1013 RMK 1CU030 3SC060 A2992
TAF RJOO 270506Z 2706/2812 33015KT 9999 FEW030 SCT045 
     TEMPO 2706/2709 33018G28KT 
     BECMG 2713/2715 32004KT 
     BECMG 2800/2803 22007KT 
     BECMG 2806/2809 34008KT
       
RJTO 270600Z 02012KT 9999 -SHRA FEW015 SCT030 BKN070 09/04 Q1008
RJOZ 270433Z 28017G28KT 250V310 9999 FEW015 BKN035 BKN070 12/04 Q1017 RMK 1CU015 5CU035 7AC070 A3005
RJFS 270600Z 28017KT 9999 FEW030 SCT040 14/04 Q1018
TAF RJFS 270509Z 2706/2812 28011KT 9999 FEW025 SCT050 
     BECMG 2803/2806 18008KT 
     BECMG 2809/2812 34006KT
       
RJSS 270600Z 35008KT 9999 -RA FEW008 SCT030 BKN050 06/02 Q1010
TAF RJSS 270506Z 2706/2812 34010KT 9999 -RA FEW010 SCT020 BKN030 
     TEMPO 2706/2709 4000 -RA BR FEW005 BKN008 BKN015 
     TEMPO 2718/2721 3000 -SHSNRA BR FEW005 BKN008 BKN015 
     BECMG 2800/2803 14008KT 
     BECMG 2806/2809 29007KT
       
RJTL 270148Z 35008KT 300V020 5000 -SHRA BR FEW010 BKN020 BKN035 04/03 Q1006 RMK 2ST010 6CU020 7SC035 A2973
RORS 270600Z 03018KT CAVOK 21/05 Q1024
RJNY 270537Z 06007KT 010V100 9999 FEW015 SCT030 FEW030CB 12/05 Q1006 RETS RMK 1CU015 3CU030 1CB030 A2973 CB SE
RJSY 270600Z 33004KT 280V020 9999 -SHRA FEW005 SCT010 BKN020 05/03 Q1011
RJBT 270600Z 01009KT 340V050 9999 FEW025 BKN035 09/M02 Q1014
RJOT 270600Z 26015KT 9999 FEW025 SCT035 BKN070 11/04 Q1013
TAF RJOT 270505Z 2706/2812 27009KT 9999 -SHRA FEW020 BKN035
       
RJFG 270600Z 30020G33KT 8000 FEW025 SCT035 13/05 Q1018
RJOS 270135Z 34015G26KT 310V020 9999 FEW030 SCT100 12/01 Q1015 RMK 1CU030 3AC100 A2998
RJTT 270600Z 01018KT 9999 FEW015 SCT020 BKN090 08/05 Q1007 NOSIG RMK 1CU015 3CU020 6AC090 A2976
TAF RJTT 270505Z 2706/2812 36012KT 9999 FEW030 
     BECMG 2803/2806 08006KT 
     BECMG 2806/2809 19012KT
       
RJOR 270600Z 02009KT 9999 FEW040 10/00 Q1015
RJNT 270600Z 01006KT 320V040 9999 -SHRA FEW005 SCT020 BKN030 09/01 Q1014
TAF RJNT 270509Z 2706/2812 35008KT 9999 FEW020 BKN040 
     BECMG 2709/2711 20004KT 
     BECMG 2803/2806 26010KT 
     BECMG 2809/2812 20008KT
       
RJDT 270600Z 27013G23KT 240V320 9999 FEW030 SCT035 11/02 Q1018
RJTU 270440Z 06009KT 9999 FEW010 SCT030 BKN040 06/02 Q1008 RMK 1ST010 3CU030 5CU040 A2978
RJCW 270600Z 28010KT 9999 FEW020 05/01 Q1013
RJSC 270600Z 36008KT 9999 VCSH FEW003 SCT010 BKN030 05/02 Q1011
RJDC 270600Z 27016G26KT 9999 VCSH FEW025 BKN040 12/03 Q1017
RJOY 270600Z 33012KT 290V360 9999 FEW035 BKN060 13/M04 Q1013
RJTY 270558Z 02014KT 10SM FEW030 SCT060 BKN130 09/04 A2979 RMK AO2A SLP096 60017 T00920042 10092 20032 57010
TAF RJTY 270500Z 2705/2811 01015KT 8000 -SHRA SCT010 BKN030 QNH2978INS 
     TEMPO 2705/2708 34015G25KT 
     BECMG 2707/2708 35012KT 9999 NSW BKN040 BKN110 QNH2980INS 
     BECMG 2709/2710 31009KT 9999 FEW150 QNH2992INS 
     BECMG 2806/2807 31009KT 9000 -RA FEW030 BKN050 OVC080 QNH2987INS TX11/2805Z TN02/2719Z
       
ROYN 270600Z AUTO 05010KT 9999 NSC 22/10 Q1024
RORY 270600Z AUTO 31014KT 9999 SCT049 BKN050 18/07 Q1022